CCA96 ZULS-VQPR
Flight info
| Callsign | CCA96 |
|---|---|
| Flight time | N/A |
| Altitude | 36100 |
| Route | DM01D DM DCT UGOVA DCT BT/N0465F280 Y1 PRO DCT |
| Aircraft | B736/M-SDE2E3FGHIRWXY/LB1 |
Departure
| Time | 2026-04-16 06:25 |
|---|---|
| Airport | Lhasa Gonggar International Airport (ZULS) |
Arrival
| Time | N/A |
|---|---|
| Airport | Paro International Airport (VQPR) |
| Time | Latitude | Longitude | Altitude | Speed | Heading |
|---|---|---|---|---|---|
| 2026-04-16 04:56 | 29.29436 | 90.89927 | 11580 ft | 0 kts | 177° |
| 2026-04-16 06:11 | 29.29454 | 90.89926 | 11557 ft | 3 kts | 177° |
| 2026-04-16 06:11 | 29.29473 | 90.89925 | 11565 ft | 3 kts | 177° |
| 2026-04-16 06:11 | 29.29492 | 90.89924 | 11553 ft | 3 kts | 150° |
| 2026-04-16 06:12 | 29.29501 | 90.89908 | 11551 ft | 3 kts | 99° |
| 2026-04-16 06:12 | 29.29503 | 90.89894 | 11564 ft | 0 kts | 99° |
| 2026-04-16 06:13 | 29.29504 | 90.89885 | 11561 ft | 2 kts | 99° |
| 2026-04-16 06:13 | 29.29507 | 90.89867 | 11551 ft | 2 kts | 98° |
| 2026-04-16 06:14 | 29.29509 | 90.89848 | 11557 ft | 2 kts | 98° |
| 2026-04-16 06:14 | 29.29511 | 90.89830 | 11559 ft | 2 kts | 98° |
| 2026-04-16 06:14 | 29.29514 | 90.89811 | 11560 ft | 2 kts | 98° |
| 2026-04-16 06:14 | 29.29516 | 90.89793 | 11552 ft | 2 kts | 97° |
| 2026-04-16 06:15 | 29.29518 | 90.89775 | 11562 ft | 2 kts | 96° |
| 2026-04-16 06:15 | 29.29518 | 90.89773 | 11561 ft | 0 kts | 101° |
| 2026-04-16 06:20 | 29.29519 | 90.89778 | 11563 ft | 2 kts | 82° |
| 2026-04-16 06:20 | 29.29522 | 90.89816 | 11563 ft | 7 kts | 86° |
| 2026-04-16 06:20 | 29.29524 | 90.89896 | 11567 ft | 13 kts | 90° |
| 2026-04-16 06:20 | 29.29538 | 90.90001 | 11558 ft | 12 kts | 47° |
| 2026-04-16 06:21 | 29.29601 | 90.90008 | 11569 ft | 10 kts | 339° |
| 2026-04-16 06:21 | 29.29625 | 90.89921 | 11566 ft | 15 kts | 268° |
| 2026-04-16 06:21 | 29.29621 | 90.89775 | 11570 ft | 22 kts | 268° |
| 2026-04-16 06:21 | 29.29617 | 90.89579 | 11563 ft | 24 kts | 269° |
| 2026-04-16 06:22 | 29.29615 | 90.89396 | 11563 ft | 21 kts | 269° |
| 2026-04-16 06:22 | 29.29617 | 90.89239 | 11563 ft | 18 kts | 287° |
| 2026-04-16 06:22 | 29.29709 | 90.89199 | 11558 ft | 13 kts | 358° |
| 2026-04-16 06:22 | 29.29775 | 90.89236 | 11557 ft | 10 kts | 68° |
| 2026-04-16 06:23 | 29.29781 | 90.89385 | 11564 ft | 39 kts | 89° |
| 2026-04-16 06:23 | 29.29789 | 90.89890 | 11566 ft | 88 kts | 89° |
| 2026-04-16 06:23 | 29.29802 | 90.90770 | 11564 ft | 132 kts | 89° |
| 2026-04-16 06:23 | 29.29822 | 90.91962 | 11555 ft | 165 kts | 89° |
| 2026-04-16 06:24 | 29.29834 | 90.93380 | 11591 ft | 187 kts | 90° |
| 2026-04-16 06:24 | 29.29803 | 90.94943 | 11681 ft | 204 kts | 92° |
| 2026-04-16 06:24 | 29.29726 | 90.96533 | 12193 ft | 193 kts | 94° |
| 2026-04-16 06:24 | 29.29623 | 90.98185 | 12205 ft | 215 kts | 94° |
| 2026-04-16 06:25 | 29.29543 | 90.99887 | 12618 ft | 219 kts | 91° |
| 2026-04-16 06:25 | 29.29552 | 91.01678 | 12908 ft | 227 kts | 88° |
| 2026-04-16 06:25 | 29.29592 | 91.03498 | 13245 ft | 233 kts | 88° |
| 2026-04-16 06:25 | 29.29615 | 91.04787 | 13307 ft | 245 kts | 89° |
| 2026-04-16 06:26 | 29.29625 | 91.05555 | 13356 ft | 251 kts | 89° |
| 2026-04-16 06:26 | 29.29606 | 91.06597 | 13388 ft | 261 kts | 90° |
| 2026-04-16 06:26 | 29.29617 | 91.08746 | 13500 ft | 279 kts | 89° |
| 2026-04-16 06:27 | 29.29638 | 91.10249 | 13613 ft | 290 kts | 89° |
| 2026-04-16 06:27 | 29.29674 | 91.15682 | 14853 ft | 296 kts | 90° |
| 2026-04-16 06:27 | 29.29681 | 91.18069 | 15340 ft | 302 kts | 90° |
| 2026-04-16 06:28 | 29.29679 | 91.20483 | 15904 ft | 303 kts | 90° |
| 2026-04-16 06:28 | 29.29677 | 91.22917 | 16400 ft | 308 kts | 90° |
| 2026-04-16 06:28 | 29.29678 | 91.25387 | 16895 ft | 312 kts | 90° |
| 2026-04-16 06:28 | 29.29375 | 91.27836 | 17447 ft | 312 kts | 109° |
| 2026-04-16 06:29 | 29.28633 | 91.30185 | 17987 ft | 314 kts | 110° |
| 2026-04-16 06:29 | 29.27944 | 91.32582 | 18393 ft | 321 kts | 101° |
| 2026-04-16 06:29 | 29.27681 | 91.35171 | 18534 ft | 335 kts | 93° |
| 2026-04-16 06:29 | 29.27554 | 91.37894 | 18647 ft | 351 kts | 92° |
| 2026-04-16 06:30 | 29.27444 | 91.40750 | 18755 ft | 366 kts | 92° |
| 2026-04-16 06:30 | 29.27320 | 91.43721 | 18870 ft | 383 kts | 92° |
| 2026-04-16 06:30 | 29.27172 | 91.46833 | 18974 ft | 400 kts | 92° |
| 2026-04-16 06:30 | 29.27003 | 91.50082 | 19102 ft | 416 kts | 93° |
| 2026-04-16 06:31 | 29.26821 | 91.53421 | 19414 ft | 424 kts | 93° |
| 2026-04-16 06:31 | 29.26654 | 91.56406 | 19859 ft | 426 kts | 93° |
| 2026-04-16 06:31 | 29.26450 | 91.59761 | 20362 ft | 429 kts | 96° |
| 2026-04-16 06:31 | 29.25616 | 91.63055 | 20734 ft | 435 kts | 118° |
| 2026-04-16 06:32 | 29.23754 | 91.65772 | 21191 ft | 436 kts | 140° |
| 2026-04-16 06:32 | 29.22959 | 91.66507 | 21383 ft | 435 kts | 146° |
| 2026-04-16 06:32 | 29.18358 | 91.68726 | 22159 ft | 434 kts | 174° |
| 2026-04-16 06:32 | 29.15355 | 91.68794 | 22607 ft | 432 kts | 190° |
| 2026-04-16 06:33 | 29.12480 | 91.67898 | 23043 ft | 427 kts | 208° |
| 2026-04-16 06:33 | 29.10176 | 91.66564 | 23526 ft | 426 kts | 211° |
| 2026-04-16 06:33 | 29.07557 | 91.64956 | 23914 ft | 428 kts | 212° |
| 2026-04-16 06:33 | 29.04938 | 91.63312 | 24253 ft | 431 kts | 212° |
| 2026-04-16 06:34 | 29.02300 | 91.61653 | 24586 ft | 435 kts | 212° |
| 2026-04-16 06:34 | 28.99633 | 91.59996 | 24973 ft | 437 kts | 212° |
| 2026-04-16 06:34 | 28.96952 | 91.58351 | 25425 ft | 438 kts | 212° |
| 2026-04-16 06:34 | 28.94261 | 91.56710 | 25830 ft | 440 kts | 211° |
| 2026-04-16 06:35 | 28.91531 | 91.55052 | 25998 ft | 448 kts | 211° |
| 2026-04-16 06:35 | 28.88801 | 91.53398 | 26346 ft | 449 kts | 211° |
| 2026-04-16 06:35 | 28.86051 | 91.51736 | 26835 ft | 448 kts | 211° |
| 2026-04-16 06:35 | 28.83292 | 91.50068 | 27230 ft | 449 kts | 212° |
| 2026-04-16 06:36 | 28.80516 | 91.48390 | 27497 ft | 454 kts | 212° |
| 2026-04-16 06:36 | 28.77700 | 91.46687 | 27571 ft | 462 kts | 212° |
| 2026-04-16 06:36 | 28.74836 | 91.44955 | 27648 ft | 469 kts | 212° |
| 2026-04-16 06:36 | 28.71932 | 91.43202 | 27715 ft | 476 kts | 212° |
| 2026-04-16 06:37 | 28.68984 | 91.41425 | 27791 ft | 481 kts | 212° |
| 2026-04-16 06:37 | 28.63042 | 91.37849 | 27978 ft | 487 kts | 212° |
| 2026-04-16 06:37 | 28.60032 | 91.36038 | 28047 ft | 491 kts | 212° |
| 2026-04-16 06:38 | 28.57013 | 91.34224 | 28295 ft | 489 kts | 212° |
| 2026-04-16 06:38 | 28.54009 | 91.32422 | 28622 ft | 487 kts | 212° |
| 2026-04-16 06:38 | 28.51019 | 91.30628 | 28939 ft | 485 kts | 212° |
| 2026-04-16 06:38 | 28.48027 | 91.28834 | 29251 ft | 485 kts | 212° |
| 2026-04-16 06:39 | 28.45078 | 91.27065 | 29547 ft | 485 kts | 212° |
| 2026-04-16 06:39 | 28.42101 | 91.25281 | 29913 ft | 484 kts | 212° |
| 2026-04-16 06:39 | 28.39127 | 91.23498 | 30288 ft | 482 kts | 212° |
| 2026-04-16 06:39 | 28.36164 | 91.21720 | 30574 ft | 481 kts | 213° |
| 2026-04-16 06:40 | 28.33198 | 91.19946 | 30806 ft | 482 kts | 213° |
| 2026-04-16 06:40 | 28.30228 | 91.18172 | 31026 ft | 483 kts | 213° |
| 2026-04-16 06:40 | 28.27253 | 91.16393 | 31245 ft | 482 kts | 213° |
| 2026-04-16 06:40 | 28.25254 | 91.15192 | 31375 ft | 481 kts | 213° |
| 2026-04-16 06:41 | 28.21317 | 91.12841 | 31554 ft | 485 kts | 213° |
| 2026-04-16 06:41 | 28.20304 | 91.12239 | 31592 ft | 487 kts | 213° |
| 2026-04-16 06:41 | 28.12732 | 91.07736 | 32381 ft | 484 kts | 214° |
| 2026-04-16 06:42 | 28.09752 | 91.05964 | 32742 ft | 482 kts | 214° |
| 2026-04-16 06:42 | 28.07225 | 91.04462 | 32952 ft | 483 kts | 214° |
| 2026-04-16 06:42 | 28.04250 | 91.02699 | 33206 ft | 483 kts | 214° |
| 2026-04-16 06:43 | 27.98110 | 90.99048 | 33631 ft | 482 kts | 214° |
| 2026-04-16 06:43 | 27.95144 | 90.97289 | 33862 ft | 481 kts | 214° |
| 2026-04-16 06:43 | 27.92180 | 90.95532 | 34053 ft | 480 kts | 214° |
| 2026-04-16 06:43 | 27.89222 | 90.93775 | 34268 ft | 479 kts | 215° |
| 2026-04-16 06:44 | 27.86259 | 90.92059 | 34534 ft | 477 kts | 214° |
| 2026-04-16 06:44 | 27.83327 | 90.90335 | 34754 ft | 475 kts | 215° |
| 2026-04-16 06:44 | 27.80408 | 90.88589 | 34970 ft | 473 kts | 215° |
| 2026-04-16 06:44 | 27.77505 | 90.86851 | 35245 ft | 470 kts | 214° |
| 2026-04-16 06:45 | 27.74623 | 90.85135 | 35525 ft | 467 kts | 214° |
| 2026-04-16 06:45 | 27.71750 | 90.83449 | 35741 ft | 465 kts | 214° |
| 2026-04-16 06:45 | 27.66024 | 90.80104 | 35821 ft | 460 kts | 217° |
| 2026-04-16 06:46 | 27.63286 | 90.78327 | 35936 ft | 461 kts | 215° |
| 2026-04-16 06:46 | 27.60456 | 90.76623 | 36111 ft | 458 kts | 218° |
| 2026-04-16 06:46 | 27.58022 | 90.74426 | 36167 ft | 442 kts | 235° |
| 2026-04-16 06:46 | 27.56273 | 90.71655 | 36191 ft | 430 kts | 247° |
| 2026-04-16 06:47 | 27.55218 | 90.68559 | 36100 ft | 417 kts | 262° |
| 2026-04-16 06:47 | 27.54618 | 90.65376 | 36203 ft | 416 kts | 261° |
| 2026-04-16 06:47 | 27.53298 | 90.58973 | 36111 ft | 423 kts | 260° |
| 2026-04-16 06:48 | 27.51922 | 90.52507 | 36107 ft | 425 kts | 260° |
| 2026-04-16 06:48 | 27.50536 | 90.46049 | 36004 ft | 416 kts | 260° |
| 2026-04-16 06:49 | 27.49861 | 90.42905 | 35638 ft | 409 kts | 260° |
| 2026-04-16 06:49 | 27.49198 | 90.39808 | 35124 ft | 406 kts | 261° |
| 2026-04-16 06:49 | 27.48534 | 90.36708 | 34426 ft | 409 kts | 261° |
| 2026-04-16 06:49 | 27.47863 | 90.33569 | 33444 ft | 417 kts | 261° |
| 2026-04-16 06:50 | 27.47176 | 90.30370 | 32457 ft | 422 kts | 261° |
| 2026-04-16 06:50 | 27.46484 | 90.27147 | 31672 ft | 423 kts | 261° |
| 2026-04-16 06:50 | 27.45805 | 90.23955 | 30912 ft | 424 kts | 261° |
| 2026-04-16 06:50 | 27.45121 | 90.20724 | 30225 ft | 425 kts | 261° |
| 2026-04-16 06:51 | 27.44435 | 90.17488 | 29322 ft | 426 kts | 261° |
| 2026-04-16 06:51 | 27.43744 | 90.14223 | 28193 ft | 432 kts | 261° |
| 2026-04-16 06:51 | 27.43039 | 90.10900 | 27113 ft | 438 kts | 260° |
| 2026-04-16 06:51 | 27.42327 | 90.07562 | 26275 ft | 437 kts | 260° |
| 2026-04-16 06:52 | 27.42051 | 90.06273 | 26015 ft | 436 kts | 260° |
| 2026-04-16 06:52 | 27.41739 | 90.04789 | 25728 ft | 434 kts | 261° |
| 2026-04-16 06:52 | 27.41140 | 90.01482 | 25118 ft | 429 kts | 262° |
| 2026-04-16 06:53 | 27.40613 | 89.98189 | 24497 ft | 425 kts | 263° |
| 2026-04-16 06:53 | 27.40106 | 89.94924 | 23889 ft | 421 kts | 263° |
| 2026-04-16 06:53 | 27.39599 | 89.91690 | 23278 ft | 417 kts | 263° |
| 2026-04-16 06:53 | 27.39086 | 89.88487 | 22581 ft | 415 kts | 263° |
| 2026-04-16 06:54 | 27.38567 | 89.85302 | 21856 ft | 413 kts | 262° |
| 2026-04-16 06:54 | 27.38046 | 89.82133 | 21157 ft | 412 kts | 262° |
| 2026-04-16 06:54 | 27.37635 | 89.78955 | 20477 ft | 408 kts | 270° |
| 2026-04-16 06:54 | 27.37784 | 89.75833 | 20297 ft | 388 kts | 276° |
| 2026-04-16 06:55 | 27.37848 | 89.72911 | 20182 ft | 372 kts | 265° |
| 2026-04-16 06:55 | 27.37266 | 89.70140 | 20095 ft | 358 kts | 251° |
| 2026-04-16 06:55 | 27.36215 | 89.67659 | 20022 ft | 345 kts | 242° |
| 2026-04-16 06:55 | 27.34897 | 89.65468 | 19891 ft | 335 kts | 233° |
| 2026-04-16 06:56 | 27.33408 | 89.63486 | 19528 ft | 330 kts | 232° |
| 2026-04-16 06:56 | 27.31926 | 89.61542 | 19018 ft | 326 kts | 232° |
| 2026-04-16 06:56 | 27.30451 | 89.59594 | 18513 ft | 328 kts | 232° |
| 2026-04-16 06:56 | 27.28980 | 89.57634 | 18007 ft | 326 kts | 232° |
| 2026-04-16 06:57 | 27.27525 | 89.55688 | 17558 ft | 324 kts | 232° |
| 2026-04-16 06:57 | 27.26079 | 89.53752 | 17111 ft | 322 kts | 231° |
| 2026-04-16 06:57 | 27.24648 | 89.51840 | 16827 ft | 314 kts | 231° |
| 2026-04-16 06:57 | 27.23307 | 89.49988 | 16734 ft | 298 kts | 237° |
| 2026-04-16 06:58 | 27.22409 | 89.47973 | 16596 ft | 280 kts | 255° |
| 2026-04-16 06:58 | 27.22093 | 89.45892 | 16475 ft | 263 kts | 269° |
| 2026-04-16 06:58 | 27.22212 | 89.43929 | 16384 ft | 247 kts | 280° |
| 2026-04-16 06:58 | 27.22660 | 89.42134 | 16254 ft | 230 kts | 288° |
| 2026-04-16 06:59 | 27.23121 | 89.40494 | 16120 ft | 211 kts | 287° |
| 2026-04-16 06:59 | 27.23530 | 89.38964 | 15814 ft | 200 kts | 286° |
| 2026-04-16 06:59 | 27.23963 | 89.37351 | 15649 ft | 224 kts | 286° |
| 2026-04-16 06:59 | 27.24413 | 89.35686 | 15631 ft | 218 kts | 288° |
| 2026-04-16 07:00 | 27.25018 | 89.34174 | 15494 ft | 205 kts | 300° |
| 2026-04-16 07:00 | 27.25272 | 89.33724 | 15468 ft | 198 kts | 303° |
| 2026-04-16 07:01 | 27.29076 | 89.30680 | 14727 ft | 204 kts | 344° |
| 2026-04-16 07:01 | 27.30448 | 89.30446 | 14581 ft | 192 kts | 357° |
| 2026-04-16 07:01 | 27.31757 | 89.30507 | 14222 ft | 188 kts | 8° |
| 2026-04-16 07:01 | 27.33089 | 89.30701 | 13892 ft | 196 kts | 1° |
| 2026-04-16 07:02 | 27.34422 | 89.30572 | 13795 ft | 191 kts | 345° |
| 2026-04-16 07:02 | 27.35683 | 89.30112 | 13787 ft | 190 kts | 334° |
| 2026-04-16 07:02 | 27.36832 | 89.29425 | 13782 ft | 185 kts | 324° |
| 2026-04-16 07:02 | 27.37900 | 89.28617 | 13793 ft | 186 kts | 324° |
| 2026-04-16 07:03 | 27.38982 | 89.27807 | 13799 ft | 188 kts | 325° |
| 2026-04-16 07:03 | 27.40075 | 89.26989 | 13789 ft | 189 kts | 324° |
| 2026-04-16 07:03 | 27.41194 | 89.26199 | 13781 ft | 190 kts | 332° |
| 2026-04-16 07:03 | 27.42420 | 89.25717 | 13752 ft | 187 kts | 349° |
| 2026-04-16 07:04 | 27.43730 | 89.25658 | 13732 ft | 186 kts | 6° |
| 2026-04-16 07:04 | 27.44967 | 89.25991 | 13732 ft | 185 kts | 21° |
| 2026-04-16 07:04 | 27.46101 | 89.26663 | 13741 ft | 185 kts | 36° |
| 2026-04-16 07:04 | 27.47062 | 89.27631 | 13748 ft | 186 kts | 50° |
| 2026-04-16 07:05 | 27.47802 | 89.28835 | 13802 ft | 189 kts | 65° |
| 2026-04-16 07:05 | 27.48257 | 89.30225 | 13747 ft | 191 kts | 80° |
| 2026-04-16 07:05 | 27.48347 | 89.31731 | 13159 ft | 200 kts | 98° |
| 2026-04-16 07:05 | 27.47989 | 89.33245 | 12731 ft | 196 kts | 114° |
| 2026-04-16 07:06 | 27.47351 | 89.34532 | 12449 ft | 186 kts | 126° |
| 2026-04-16 07:06 | 27.46482 | 89.35688 | 11747 ft | 201 kts | 138° |
| 2026-04-16 07:06 | 27.45406 | 89.36650 | 11329 ft | 196 kts | 146° |
| 2026-04-16 07:06 | 27.44451 | 89.37808 | 10524 ft | 212 kts | 122° |
| 2026-04-16 07:07 | 27.43831 | 89.39331 | 9585 ft | 222 kts | 110° |
| 2026-04-16 07:07 | 27.43246 | 89.40921 | 8746 ft | 219 kts | 136° |
| 2026-04-16 07:07 | 27.41892 | 89.41594 | 7866 ft | 223 kts | 166° |
| 2026-04-16 07:07 | 27.40576 | 89.42213 | 8019 ft | 177 kts | 152° |
| 2026-04-16 07:08 | 27.39666 | 89.42848 | 8276 ft | 151 kts | 145° |
| 2026-04-16 07:08 | 27.38714 | 89.43558 | 8389 ft | 165 kts | 154° |
| 2026-04-16 07:08 | 27.37653 | 89.44062 | 8781 ft | 166 kts | 160° |
| 2026-04-16 07:08 | 27.36531 | 89.44500 | 9080 ft | 177 kts | 161° |
| 2026-04-16 07:09 | 27.35314 | 89.44893 | 9437 ft | 187 kts | 163° |
| 2026-04-16 07:09 | 27.34037 | 89.45425 | 9646 ft | 205 kts | 149° |
| 2026-04-16 07:09 | 27.33117 | 89.46651 | 9878 ft | 217 kts | 112° |
| 2026-04-16 07:09 | 27.32942 | 89.48380 | 10113 ft | 228 kts | 89° |
| 2026-04-16 07:10 | 27.32787 | 89.50141 | 10626 ft | 227 kts | 100° |
| 2026-04-16 07:10 | 27.32902 | 89.51886 | 11122 ft | 227 kts | 74° |
| 2026-04-16 07:10 | 27.33120 | 89.53027 | 11470 ft | 226 kts | 92° |
| 2026-04-16 07:11 | 27.28384 | 89.53938 | 13331 ft | 226 kts | 198° |
| 2026-04-16 07:11 | 27.26806 | 89.53705 | 13594 ft | 238 kts | 188° |
| 2026-04-16 07:12 | 27.25222 | 89.53005 | 13725 ft | 257 kts | 218° |
| 2026-04-16 07:12 | 27.24176 | 89.51806 | 13945 ft | 266 kts | 225° |
| 2026-04-16 07:13 | 27.23262 | 89.51006 | 13878 ft | 281 kts | 204° |
| 2026-04-16 07:13 | 27.21294 | 89.50643 | 13926 ft | 301 kts | 172° |
| 2026-04-16 07:13 | 27.19227 | 89.51396 | 13940 ft | 326 kts | 161° |
| 2026-04-16 07:13 | 27.16954 | 89.52044 | 13899 ft | 349 kts | 171° |
| 2026-04-16 07:14 | 27.14467 | 89.52432 | 13891 ft | 372 kts | 174° |
| 2026-04-16 07:14 | 27.11827 | 89.52739 | 13885 ft | 390 kts | 175° |
| 2026-04-16 07:14 | 27.09090 | 89.53048 | 14194 ft | 397 kts | 173° |
| 2026-04-16 07:14 | 27.06468 | 89.53988 | 14878 ft | 399 kts | 149° |
| 2026-04-16 07:15 | 27.04398 | 89.56018 | 15433 ft | 394 kts | 127° |
| 2026-04-16 07:15 | 27.03136 | 89.58726 | 15730 ft | 393 kts | 110° |
| 2026-04-16 07:15 | 27.01910 | 89.61448 | 15687 ft | 392 kts | 131° |
| 2026-04-16 07:15 | 26.99803 | 89.63368 | 15737 ft | 396 kts | 155° |
| 2026-04-16 07:16 | 26.97165 | 89.64170 | 15727 ft | 393 kts | 180° |
| 2026-04-16 07:16 | 26.94509 | 89.63700 | 15734 ft | 383 kts | 205° |
| 2026-04-16 07:16 | 26.92346 | 89.62111 | 15702 ft | 376 kts | 229° |
| 2026-04-16 07:16 | 26.90985 | 89.59665 | 15700 ft | 370 kts | 253° |
| 2026-04-16 07:17 | 26.90696 | 89.56835 | 15704 ft | 368 kts | 278° |
| 2026-04-16 07:17 | 26.91512 | 89.54196 | 15709 ft | 354 kts | 303° |
| 2026-04-16 07:17 | 26.93201 | 89.52298 | 15696 ft | 338 kts | 326° |